createdAt,value
2023-01-28T00:01:41.956Z,984.58
2023-01-28T00:07:13.567Z,984.86
2023-01-28T00:12:45.387Z,984.77
2023-01-28T00:18:16.958Z,984.97
2023-01-28T00:23:48.370Z,985.18
2023-01-28T00:29:20.726Z,985.08
2023-01-28T00:34:52.015Z,985.08
2023-01-28T00:40:23.449Z,985.1
2023-01-28T00:45:55.528Z,985.01
2023-01-28T00:51:26.977Z,984.81
2023-01-28T00:57:05.345Z,984.86
2023-01-28T01:02:37.091Z,985.01
2023-01-28T01:08:08.612Z,984.95
2023-01-28T01:13:40.391Z,984.95
2023-01-28T01:19:12.507Z,984.9
2023-01-28T01:24:43.670Z,984.96
2023-01-28T01:30:15.632Z,985.2
2023-01-28T01:35:47.466Z,985.1
2023-01-28T01:41:19.096Z,985.06
2023-01-28T01:46:50.769Z,984.93
2023-01-28T01:52:22.440Z,984.98
2023-01-28T01:57:58.813Z,984.83
2023-01-28T02:03:30.766Z,984.83
2023-01-28T02:09:02.261Z,984.94
2023-01-28T02:14:33.620Z,984.98
2023-01-28T02:20:05.633Z,984.99
2023-01-28T02:25:37.191Z,984.91
2023-01-28T02:31:09.631Z,984.93
2023-01-28T02:36:40.739Z,985.02
2023-01-28T02:42:12.321Z,985.14
2023-01-28T02:47:44.017Z,985.11
2023-01-28T02:53:15.996Z,985.19
2023-01-28T02:58:54.143Z,985.01
2023-01-28T03:04:25.659Z,984.85
2023-01-28T03:09:57.596Z,984.4
2023-01-28T03:15:29.466Z,985.11
2023-01-28T03:21:00.870Z,985.16
2023-01-28T03:26:32.764Z,984.6
2023-01-28T03:32:04.287Z,984.95
2023-01-28T03:37:35.909Z,984.64
2023-01-28T03:43:07.532Z,985.02
2023-01-28T03:48:39.488Z,984.9
2023-01-28T03:54:11.371Z,984.78
2023-01-28T03:59:47.259Z,984.73
2023-01-28T04:05:18.935Z,984.66
2023-01-28T04:10:51.000Z,985.07
2023-01-28T04:16:22.364Z,985.17
2023-01-28T04:21:54.080Z,985.16
2023-01-28T04:27:25.687Z,985.32
2023-01-28T04:32:57.646Z,985.4
2023-01-28T04:38:29.066Z,985.28
2023-01-28T04:44:01.052Z,985.29
2023-01-28T04:49:33.715Z,985.48
2023-01-28T04:55:04.662Z,985.51
2023-01-28T05:00:40.771Z,985.52
2023-01-28T05:06:12.370Z,985.77
2023-01-28T05:11:44.258Z,985.73
2023-01-28T05:17:15.823Z,985.59
2023-01-28T05:22:48.006Z,985.65
2023-01-28T05:28:19.307Z,985.55
2023-01-28T05:33:51.099Z,984.45
2023-01-28T05:39:22.627Z,984.52
2023-01-28T05:44:54.571Z,985.68
2023-01-28T05:50:26.994Z,985.66
2023-01-28T05:55:58.070Z,985.14
2023-01-28T06:01:33.851Z,985.54
2023-01-28T06:07:05.750Z,985.71
2023-01-28T06:12:37.585Z,985.75
2023-01-28T06:18:09.031Z,985.81
2023-01-28T06:23:40.906Z,985.99
2023-01-28T06:29:12.622Z,985.79
2023-01-28T06:34:44.107Z,985.86
2023-01-28T06:40:17.684Z,986.27
2023-01-28T06:45:47.871Z,986.33
2023-01-28T06:51:19.640Z,986.37
2023-01-28T06:56:51.065Z,986.11
2023-01-28T07:02:28.767Z,986.41
2023-01-28T07:07:59.108Z,986.42
2023-01-28T07:13:30.848Z,986.33
2023-01-28T07:19:02.702Z,986.72
2023-01-28T07:24:34.383Z,986.77
2023-01-28T07:30:06.080Z,986.55
2023-01-28T07:35:37.817Z,986.82
2023-01-28T07:41:09.695Z,986.67
2023-01-28T07:46:41.453Z,986.78
2023-01-28T07:52:12.979Z,986.86
2023-01-28T07:57:44.927Z,986.94
2023-01-28T08:03:22.870Z,987.2
2023-01-28T08:08:54.540Z,987.29
2023-01-28T08:14:26.111Z,987.22
2023-01-28T08:19:58.015Z,987.55
2023-01-28T08:25:29.824Z,987.68
2023-01-28T08:31:02.483Z,987.9
2023-01-28T08:36:33.064Z,988.01
2023-01-28T08:42:05.154Z,987.54
2023-01-28T08:47:36.748Z,987.53
2023-01-28T08:53:08.500Z,987.75
2023-01-28T08:58:40.116Z,987.69
2023-01-28T09:04:18.543Z,988.11
2023-01-28T09:09:49.700Z,988.1
2023-01-28T09:15:21.468Z,988.39
2023-01-28T09:20:53.219Z,988.23
2023-01-28T09:26:25.218Z,988.27
2023-01-28T09:31:56.883Z,988.3
2023-01-28T09:37:28.320Z,988.77
2023-01-28T09:43:00.876Z,988.02
2023-01-28T09:48:31.807Z,988.68
2023-01-28T09:54:03.695Z,989.03
2023-01-28T09:59:35.383Z,988.85
2023-01-28T10:05:13.916Z,989.07
2023-01-28T10:10:45.691Z,988.99
2023-01-28T10:16:17.403Z,988.51
2023-01-28T10:21:49.047Z,988.67
2023-01-28T10:27:20.931Z,988.53
2023-01-28T10:32:52.967Z,989.05
2023-01-28T10:38:23.993Z,988.32
2023-01-28T10:43:56.012Z,988.37
2023-01-28T10:49:27.678Z,988.43
2023-01-28T10:55:00.267Z,987.88
2023-01-28T11:00:31.178Z,987.3
2023-01-28T11:06:07.099Z,988.24
2023-01-28T11:11:38.551Z,988.32
2023-01-28T11:17:11.590Z,988.02
2023-01-28T11:22:42.789Z,988.3
2023-01-28T11:28:13.620Z,988.31
2023-01-28T11:33:45.446Z,988.51
2023-01-28T11:39:17.152Z,988.77
2023-01-28T11:44:49.846Z,988.35
2023-01-28T11:50:21.236Z,987.58
2023-01-28T11:55:52.619Z,987.8
2023-01-28T12:01:24.052Z,987.55
2023-01-28T12:07:00.280Z,987.08
2023-01-28T12:12:32.002Z,988.08
2023-01-28T12:18:03.726Z,988.07
2023-01-28T12:23:35.486Z,987.96
2023-01-28T12:29:07.763Z,988.08
2023-01-28T12:34:40.780Z,987.74
2023-01-28T12:40:12.547Z,988.72
2023-01-28T12:45:43.937Z,988.04
2023-01-28T12:51:15.578Z,987.4
2023-01-28T12:56:47.312Z,987.31
2023-01-28T13:02:19.201Z,987.83
2023-01-28T13:07:55.520Z,987.57
2023-01-28T13:13:28.014Z,987.48
2023-01-28T13:18:58.703Z,987.28
2023-01-28T13:24:30.548Z,987.64
2023-01-28T13:30:02.970Z,987.02
2023-01-28T13:35:33.940Z,987.28
2023-01-28T13:41:05.687Z,987.46
2023-01-28T13:46:38.099Z,987.61
2023-01-28T13:52:09.046Z,987.88
2023-01-28T13:57:40.761Z,987.3
2023-01-28T14:03:12.648Z,987.97
2023-01-28T14:08:50.488Z,987.91
2023-01-28T14:14:22.164Z,987.99
2023-01-28T14:19:54.195Z,987.73
2023-01-28T14:25:25.699Z,987.65
2023-01-28T14:30:57.679Z,988.25
2023-01-28T14:36:29.425Z,988.25
2023-01-28T14:42:01.393Z,988.33
2023-01-28T14:47:32.929Z,988.9
2023-01-28T14:53:04.651Z,988.21
2023-01-28T14:58:36.559Z,988.82
2023-01-28T15:04:08.099Z,988.48
2023-01-28T15:09:46.328Z,988.97
2023-01-28T15:15:18.525Z,988.73
2023-01-28T15:20:50.057Z,989.05
2023-01-28T15:26:21.325Z,988.92
2023-01-28T15:31:53.536Z,988.91
2023-01-28T15:37:24.905Z,988.88
2023-01-28T15:42:56.908Z,989.09
2023-01-28T15:48:28.318Z,989.04
2023-01-28T15:53:59.889Z,989.15
2023-01-28T15:59:31.764Z,989.14
2023-01-28T16:05:03.544Z,988.96
2023-01-28T16:10:39.693Z,988.9
2023-01-28T16:16:11.434Z,988.3
2023-01-28T16:21:43.410Z,988.77
2023-01-28T16:27:14.752Z,988.43
2023-01-28T16:32:46.574Z,988.66
2023-01-28T16:38:18.388Z,988.78
2023-01-28T16:43:49.829Z,988.31
2023-01-28T16:49:22.255Z,988.96
2023-01-28T16:54:53.330Z,988.27
2023-01-28T17:00:25.043Z,988.94
2023-01-28T17:05:57.803Z,988.87
2023-01-28T17:11:33.271Z,989.17
2023-01-28T17:17:04.834Z,989.1
2023-01-28T17:22:36.447Z,989.12
2023-01-28T17:28:08.202Z,988.75
2023-01-28T17:33:39.871Z,988.74
2023-01-28T17:39:11.953Z,988.87
2023-01-28T17:44:43.393Z,988.7
2023-01-28T17:50:15.075Z,988.9
2023-01-28T17:55:46.963Z,988.99
2023-01-28T18:01:18.927Z,989.13
2023-01-28T18:06:50.326Z,989.12
2023-01-28T18:12:26.346Z,989.28
2023-01-28T18:17:58.128Z,989.21
2023-01-28T18:23:30.839Z,989.27
2023-01-28T18:29:02.411Z,989.28
2023-01-28T18:34:34.235Z,989.28
2023-01-28T18:40:05.887Z,989.44
2023-01-28T18:45:37.837Z,989.27
2023-01-28T18:51:30.904Z,989.21
2023-01-28T18:56:41.176Z,989.21
2023-01-28T19:02:13.283Z,989.23
2023-01-28T19:07:44.836Z,989.15
2023-01-28T19:13:20.874Z,989.12
2023-01-28T19:18:52.359Z,989.17
2023-01-28T19:24:24.444Z,989.21
2023-01-28T19:29:56.101Z,989.15
2023-01-28T19:35:27.730Z,989.08
2023-01-28T19:41:00.101Z,989.15
2023-01-28T19:46:31.416Z,989.25
2023-01-28T19:52:02.926Z,988.77
2023-01-28T19:57:34.893Z,988.81
2023-01-28T20:03:06.297Z,988.93
2023-01-28T20:08:38.054Z,989.14
2023-01-28T20:14:14.208Z,988.95
2023-01-28T20:19:46.085Z,987.75
2023-01-28T20:25:19.176Z,988.38
2023-01-28T20:30:50.580Z,988.23
2023-01-28T20:36:20.997Z,988.53
2023-01-28T20:41:53.109Z,988.72
2023-01-28T20:47:24.623Z,988.84
2023-01-28T20:52:56.235Z,988.71
2023-01-28T20:58:27.870Z,988.27
2023-01-28T21:03:59.561Z,988.71
2023-01-28T21:09:31.679Z,988.51
2023-01-28T21:15:09.560Z,988.5
2023-01-28T21:20:41.632Z,988.61
2023-01-28T21:26:12.873Z,988.41
2023-01-28T21:31:45.418Z,988.42
2023-01-28T21:37:16.432Z,987.66
2023-01-28T21:42:48.023Z,988.46
2023-01-28T21:48:20.016Z,987.75
2023-01-28T21:53:52.079Z,987.64
2023-01-28T21:59:23.385Z,988.15
2023-01-28T22:04:55.371Z,988.41
2023-01-28T22:10:27.045Z,988.61
2023-01-28T22:16:04.915Z,987.99
2023-01-28T22:21:36.992Z,988.38
2023-01-28T22:27:08.574Z,987.85
2023-01-28T22:32:40.723Z,987.84
2023-01-28T22:38:11.725Z,988.05
2023-01-28T22:43:43.826Z,987.57
2023-01-28T22:49:15.392Z,987.57
2023-01-28T22:54:47.002Z,987.99
2023-01-28T23:00:19.612Z,987.7
2023-01-28T23:05:50.739Z,987.82
2023-01-28T23:11:22.442Z,988.04
2023-01-28T23:16:58.955Z,987.54
2023-01-28T23:22:29.962Z,987.72
2023-01-28T23:28:02.015Z,987.62
2023-01-28T23:33:33.601Z,987.81
2023-01-28T23:39:05.321Z,987.97
2023-01-28T23:44:37.163Z,988.03
2023-01-28T23:50:09.059Z,988.21
2023-01-28T23:55:40.628Z,988.03
